createdAt,value
2023-05-06T00:00:40.190Z,12.41
2023-05-06T00:03:14.716Z,12.43
2023-05-06T00:05:48.706Z,12.53
2023-05-06T00:08:21.552Z,12.81
2023-05-06T00:10:54.248Z,12.72
2023-05-06T00:13:27.256Z,12.67
2023-05-06T00:16:00.756Z,12.51
2023-05-06T00:18:34.986Z,12.31
2023-05-06T00:21:07.942Z,12.01
2023-05-06T00:23:41.104Z,11.98
2023-05-06T00:26:14.111Z,12.02
2023-05-06T00:28:47.023Z,11.92
2023-05-06T00:31:19.863Z,11.99
2023-05-06T00:33:54.274Z,11.99
2023-05-06T00:36:27.330Z,11.71
2023-05-06T00:39:00.126Z,11.97
2023-05-06T00:41:33.470Z,11.99
2023-05-06T00:44:06.462Z,11.96
2023-05-06T00:46:39.630Z,12.04
2023-05-06T00:49:14.045Z,12.17
2023-05-06T00:51:47.509Z,12.13
2023-05-06T00:54:20.633Z,12.10
2023-05-06T00:56:53.926Z,12.10
2023-05-06T00:59:26.690Z,12.07
2023-05-06T01:01:59.566Z,12.01
2023-05-06T01:04:34.270Z,11.90
2023-05-06T01:07:09.895Z,12.11
2023-05-06T01:09:44.004Z,12.01
2023-05-06T01:12:22.084Z,12.11
2023-05-06T01:15:00.401Z,12.23
2023-05-06T01:17:34.773Z,12.30
2023-05-06T01:20:11.937Z,12.27
2023-05-06T01:22:45.189Z,12.51
2023-05-06T01:25:23.056Z,12.43
2023-05-06T01:27:55.883Z,12.54
2023-05-06T01:30:32.787Z,12.43
2023-05-06T01:33:08.117Z,12.49
2023-05-06T01:35:48.048Z,12.44
2023-05-06T01:38:24.965Z,12.48
2023-05-06T01:40:59.720Z,12.86
2023-05-06T01:43:35.968Z,12.64
2023-05-06T01:46:12.054Z,12.54
2023-05-06T01:48:46.531Z,12.58
2023-05-06T01:51:19.313Z,12.63
2023-05-06T01:53:52.296Z,12.62
2023-05-06T01:56:27.180Z,12.61
2023-05-06T01:59:00.282Z,12.73
2023-05-06T02:01:33.265Z,12.78
2023-05-06T02:04:06.150Z,12.67
2023-05-06T02:06:39.402Z,12.83
2023-05-06T02:09:12.315Z,12.77
2023-05-06T02:11:46.659Z,12.91
2023-05-06T02:14:19.428Z,12.76
2023-05-06T02:16:52.197Z,12.61
2023-05-06T02:19:25.058Z,12.54
2023-05-06T02:21:57.753Z,12.61
2023-05-06T02:24:30.681Z,12.38
2023-05-06T02:27:05.446Z,12.34
2023-05-06T02:29:38.316Z,12.47
2023-05-06T02:32:11.433Z,12.43
2023-05-06T02:34:44.323Z,12.35
2023-05-06T02:37:17.152Z,12.40
2023-05-06T02:39:49.928Z,12.51
2023-05-06T02:42:24.094Z,12.49
2023-05-06T02:44:57.035Z,12.49
2023-05-06T02:47:29.902Z,12.34
2023-05-06T02:50:02.710Z,12.28
2023-05-06T02:52:35.504Z,12.22
2023-05-06T02:55:08.983Z,12.47
2023-05-06T02:57:43.426Z,12.29
2023-05-06T03:00:16.717Z,12.27
2023-05-06T03:02:49.533Z,12.24
2023-05-06T03:05:22.474Z,12.33
2023-05-06T03:07:55.342Z,12.35
2023-05-06T03:10:28.172Z,12.25
2023-05-06T03:13:02.583Z,12.31
2023-05-06T03:15:35.471Z,12.48
2023-05-06T03:18:08.458Z,12.56
2023-05-06T03:20:41.266Z,12.50
2023-05-06T03:23:14.145Z,12.34
2023-05-06T03:25:46.991Z,12.45
2023-05-06T03:28:24.481Z,12.41
2023-05-06T03:30:57.332Z,12.54
2023-05-06T03:33:30.350Z,12.40
2023-05-06T03:36:03.142Z,12.35
2023-05-06T03:38:36.230Z,12.38
2023-05-06T03:41:09.296Z,12.53
2023-05-06T03:43:43.568Z,12.56
2023-05-06T03:46:16.294Z,12.63
2023-05-06T03:48:49.323Z,12.56
2023-05-06T03:51:22.138Z,12.44
2023-05-06T03:53:55.070Z,12.55
2023-05-06T03:56:27.872Z,12.56
2023-05-06T03:59:02.105Z,12.40
2023-05-06T04:01:35.392Z,12.42
2023-05-06T04:04:08.423Z,12.39
2023-05-06T04:06:41.329Z,12.54
2023-05-06T04:09:14.288Z,12.58
2023-05-06T04:11:47.372Z,12.51
2023-05-06T04:14:21.767Z,12.51
2023-05-06T04:16:54.800Z,12.43
2023-05-06T04:19:28.014Z,12.45
2023-05-06T04:22:00.819Z,12.44
2023-05-06T04:24:33.890Z,12.40
2023-05-06T04:27:06.679Z,12.64
2023-05-06T04:29:40.829Z,12.59
2023-05-06T04:32:13.760Z,12.54
2023-05-06T04:34:47.417Z,12.51
2023-05-06T04:37:21.139Z,12.66
2023-05-06T04:39:54.469Z,12.71
2023-05-06T04:42:27.327Z,12.69
2023-05-06T04:45:02.169Z,12.53
2023-05-06T04:47:35.168Z,12.54
2023-05-06T04:50:08.760Z,12.58
2023-05-06T04:52:41.620Z,12.58
2023-05-06T04:55:14.467Z,12.61
2023-05-06T04:57:47.444Z,12.67
2023-05-06T05:00:22.306Z,12.88
2023-05-06T05:02:55.122Z,12.94
2023-05-06T05:05:28.532Z,12.91
2023-05-06T05:08:01.727Z,13.04
2023-05-06T05:10:34.591Z,13.28
2023-05-06T05:13:09.413Z,13.34
2023-05-06T05:15:43.571Z,13.54
2023-05-06T05:18:16.617Z,13.53
2023-05-06T05:20:49.492Z,13.60
2023-05-06T05:23:22.341Z,13.72
2023-05-06T05:25:55.216Z,13.70
2023-05-06T05:28:28.649Z,13.83
2023-05-06T05:31:04.600Z,13.91
2023-05-06T05:33:37.523Z,13.91
2023-05-06T05:36:12.517Z,13.95
2023-05-06T05:38:47.811Z,14.06
2023-05-06T05:41:20.635Z,14.22
2023-05-06T05:43:53.501Z,14.37
2023-05-06T05:46:28.057Z,14.42
2023-05-06T05:49:01.980Z,14.63
2023-05-06T05:51:34.795Z,14.69
2023-05-06T05:54:07.495Z,14.73
2023-05-06T05:56:40.363Z,14.79
2023-05-06T05:59:13.530Z,14.86
2023-05-06T06:01:47.632Z,14.97
2023-05-06T06:04:21.114Z,15.10
2023-05-06T06:06:54.089Z,15.10
2023-05-06T06:09:26.964Z,15.20
2023-05-06T06:11:59.803Z,15.02
2023-05-06T06:14:33.090Z,15.02
2023-05-06T06:17:07.283Z,15.12
2023-05-06T06:19:40.107Z,15.13
2023-05-06T06:22:12.924Z,15.13
2023-05-06T06:24:46.106Z,15.25
2023-05-06T06:27:18.875Z,15.33
2023-05-06T06:29:52.040Z,15.48
2023-05-06T06:32:26.560Z,15.38
2023-05-06T06:34:59.595Z,15.30
2023-05-06T06:37:32.451Z,15.35
2023-05-06T06:40:05.912Z,15.39
2023-05-06T06:42:38.767Z,15.47
2023-05-06T06:45:12.554Z,15.60
2023-05-06T06:47:47.104Z,15.73
2023-05-06T06:50:20.446Z,15.83
2023-05-06T06:52:53.541Z,15.98
2023-05-06T06:55:26.513Z,16.00
2023-05-06T06:57:59.368Z,16.16
2023-05-06T07:00:32.372Z,16.24
2023-05-06T07:03:06.937Z,16.37
2023-05-06T07:05:40.220Z,16.49
2023-05-06T07:08:13.153Z,16.54
2023-05-06T07:10:46.292Z,16.46
2023-05-06T07:13:20.778Z,16.64
2023-05-06T07:15:56.052Z,16.70
2023-05-06T07:18:30.659Z,16.69
2023-05-06T07:21:03.881Z,16.76
2023-05-06T07:23:36.923Z,16.95
2023-05-06T07:26:10.232Z,16.83
2023-05-06T07:28:43.424Z,16.82
2023-05-06T07:31:19.184Z,16.80
2023-05-06T07:33:53.581Z,17.04
2023-05-06T07:36:27.364Z,17.14
2023-05-06T07:39:00.718Z,17.24
2023-05-06T07:41:33.861Z,17.38
2023-05-06T07:44:07.159Z,17.41
2023-05-06T07:46:40.274Z,17.47
2023-05-06T07:49:14.761Z,17.40
2023-05-06T07:52:06.284Z,17.45
2023-05-06T07:54:41.971Z,17.69
2023-05-06T07:57:16.175Z,17.80
2023-05-06T07:59:50.379Z,17.73
2023-05-06T08:02:23.344Z,17.86
2023-05-06T08:04:58.087Z,17.95
2023-05-06T08:07:31.163Z,18.04
2023-05-06T08:10:04.437Z,18.22
2023-05-06T08:12:38.394Z,18.42
2023-05-06T08:15:14.654Z,18.62
2023-05-06T08:17:47.876Z,18.49
2023-05-06T08:20:22.400Z,18.49
2023-05-06T08:22:55.423Z,18.62
2023-05-06T08:25:28.604Z,18.94
2023-05-06T08:28:01.865Z,18.91
2023-05-06T08:30:35.641Z,18.61
2023-05-06T08:33:08.654Z,18.70
2023-05-06T08:35:43.053Z,18.99
2023-05-06T08:38:16.227Z,19.10
2023-05-06T08:40:50.533Z,19.33
2023-05-06T08:43:24.826Z,19.72
2023-05-06T08:45:58.338Z,19.30
2023-05-06T08:48:31.551Z,19.11
2023-05-06T08:51:06.125Z,18.87
2023-05-06T08:53:41.381Z,19.20
2023-05-06T08:56:14.996Z,19.33
2023-05-06T08:58:49.360Z,19.45
2023-05-06T09:01:23.095Z,19.38
2023-05-06T09:03:56.548Z,19.48
2023-05-06T09:06:32.981Z,19.83
2023-05-06T09:09:06.121Z,19.57
2023-05-06T09:11:39.950Z,19.59
2023-05-06T09:14:14.173Z,19.72
2023-05-06T09:16:48.355Z,19.84
2023-05-06T09:19:22.539Z,19.71
2023-05-06T09:21:56.985Z,19.78
2023-05-06T09:24:30.212Z,19.76
2023-05-06T09:27:03.483Z,19.67
2023-05-06T09:29:36.742Z,19.28
2023-05-06T09:32:10.503Z,19.21
2023-05-06T09:34:46.692Z,19.44
2023-05-06T09:37:21.417Z,19.82
2023-05-06T09:39:58.794Z,19.84
2023-05-06T09:42:31.868Z,19.79
2023-05-06T09:45:05.128Z,19.67
2023-05-06T09:47:38.583Z,19.65
2023-05-06T09:50:12.069Z,19.63
2023-05-06T09:52:47.227Z,19.77
2023-05-06T09:55:23.615Z,19.61
2023-05-06T09:57:58.354Z,19.66
2023-05-06T10:00:32.598Z,19.59
2023-05-06T10:03:06.219Z,19.82
2023-05-06T10:05:39.711Z,20.07
2023-05-06T10:08:18.712Z,20.20
2023-05-06T10:10:52.091Z,20.30
2023-05-06T10:13:25.916Z,20.25
2023-05-06T10:16:01.346Z,20.03
2023-05-06T10:18:36.363Z,20.11
2023-05-06T10:21:17.289Z,20.24
2023-05-06T10:23:56.672Z,19.96
2023-05-06T10:26:31.192Z,19.83
2023-05-06T10:29:08.490Z,19.67
2023-05-06T10:31:46.613Z,19.59
2023-05-06T10:34:21.469Z,19.51
2023-05-06T10:36:57.981Z,19.56
2023-05-06T10:39:32.711Z,19.55
2023-05-06T10:42:07.210Z,19.56
2023-05-06T10:44:59.150Z,19.54
2023-05-06T10:47:46.967Z,19.48
2023-05-06T10:50:21.357Z,19.48
2023-05-06T10:52:57.119Z,19.53
2023-05-06T10:55:32.473Z,19.51
2023-05-06T10:58:14.894Z,19.47
2023-05-06T11:00:54.689Z,19.40
2023-05-06T11:03:27.858Z,19.38
2023-05-06T11:06:01.427Z,19.29
2023-05-06T11:08:35.361Z,19.33
2023-05-06T11:11:23.422Z,19.33
2023-05-06T11:14:13.166Z,19.39
2023-05-06T11:16:49.627Z,19.44
2023-05-06T11:19:23.753Z,19.71
2023-05-06T11:21:57.769Z,19.77
2023-05-06T11:24:31.574Z,19.90
2023-05-06T11:27:04.507Z,20.16
2023-05-06T11:29:39.360Z,20.30
2023-05-06T11:32:21.685Z,19.89
2023-05-06T11:34:57.299Z,19.76
2023-05-06T11:37:30.816Z,19.67
2023-05-06T11:40:08.437Z,19.60
2023-05-06T11:42:41.756Z,19.58
2023-05-06T11:45:17.117Z,19.57
2023-05-06T11:47:50.104Z,19.51
2023-05-06T11:50:23.553Z,19.57
2023-05-06T11:52:59.318Z,19.53
2023-05-06T11:55:33.569Z,19.56
2023-05-06T11:58:06.558Z,19.61
2023-05-06T12:00:46.907Z,19.78
2023-05-06T12:03:21.292Z,19.91
2023-05-06T12:05:54.757Z,20.05
2023-05-06T12:08:29.012Z,20.10
2023-05-06T12:11:03.478Z,20.16
2023-05-06T12:13:37.919Z,19.99
2023-05-06T12:16:12.376Z,20.02
2023-05-06T12:18:46.117Z,20.13
2023-05-06T12:21:24.073Z,20.25
2023-05-06T12:23:58.552Z,20.33
2023-05-06T12:26:45.863Z,20.41
2023-05-06T12:29:19.316Z,20.45
2023-05-06T12:32:07.691Z,20.43
2023-05-06T12:34:41.882Z,20.37
2023-05-06T12:37:26.870Z,20.13
2023-05-06T12:40:00.182Z,20.03
2023-05-06T12:42:33.670Z,19.94
2023-05-06T12:45:16.046Z,20.00
2023-05-06T12:47:56.681Z,20.01
2023-05-06T12:50:33.922Z,20.06
2023-05-06T12:53:07.777Z,20.13
2023-05-06T12:55:41.912Z,20.00
2023-05-06T12:58:18.396Z,19.91
2023-05-06T13:00:51.444Z,19.98
2023-05-06T13:03:26.182Z,20.03
2023-05-06T13:05:59.927Z,20.04
2023-05-06T13:08:32.898Z,19.93
2023-05-06T13:11:06.248Z,19.88
2023-05-06T13:13:39.284Z,19.80
2023-05-06T13:16:12.671Z,19.72
2023-05-06T13:18:47.290Z,19.75
2023-05-06T13:21:23.240Z,19.78
2023-05-06T13:23:59.272Z,19.68
2023-05-06T13:26:32.367Z,19.75
2023-05-06T13:29:05.882Z,19.69
2023-05-06T13:31:38.902Z,19.67
2023-05-06T13:34:13.313Z,19.69
2023-05-06T13:36:49.323Z,19.73
2023-05-06T13:39:22.846Z,19.75
2023-05-06T13:41:58.567Z,19.76
2023-05-06T13:44:31.497Z,19.79
2023-05-06T13:47:04.682Z,19.96
2023-05-06T13:49:39.749Z,20.04
2023-05-06T13:52:12.922Z,19.87
2023-05-06T13:54:46.496Z,19.87
2023-05-06T13:57:19.795Z,19.91
2023-05-06T13:59:52.810Z,20.02
2023-05-06T14:02:26.717Z,20.17
2023-05-06T14:05:02.156Z,20.32
2023-05-06T14:07:39.750Z,20.28
2023-05-06T14:10:13.605Z,20.35
2023-05-06T14:12:48.947Z,20.29
2023-05-06T14:15:22.235Z,20.24
2023-05-06T14:17:55.467Z,20.19
2023-05-06T14:20:30.013Z,20.13
2023-05-06T14:23:05.523Z,20.03
2023-05-06T14:25:38.933Z,19.97
2023-05-06T14:28:13.028Z,19.91
2023-05-06T14:30:46.346Z,19.90
2023-05-06T14:33:19.637Z,19.87
2023-05-06T14:35:56.713Z,19.86
2023-05-06T14:38:32.483Z,19.78
2023-05-06T14:41:05.592Z,19.82
2023-05-06T14:43:43.427Z,19.65
2023-05-06T14:46:18.445Z,19.66
2023-05-06T14:48:52.017Z,19.71
2023-05-06T14:51:26.540Z,19.71
2023-05-06T14:53:59.950Z,19.68
2023-05-06T14:56:33.130Z,19.61
2023-05-06T14:59:06.282Z,19.62
2023-05-06T15:01:44.421Z,19.49
2023-05-06T15:04:24.341Z,19.47
2023-05-06T15:06:58.886Z,19.34
2023-05-06T15:09:32.677Z,19.35
2023-05-06T15:12:06.036Z,19.39
2023-05-06T15:14:39.160Z,19.03
2023-05-06T15:17:16.789Z,19.04
2023-05-06T15:19:50.093Z,18.49
2023-05-06T15:22:24.575Z,18.10
2023-05-06T15:24:57.737Z,17.90
2023-05-06T15:27:33.783Z,17.80
2023-05-06T15:30:10.355Z,17.77
2023-05-06T15:32:43.591Z,18.03
2023-05-06T15:35:17.000Z,18.03
2023-05-06T15:37:57.075Z,18.05
2023-05-06T15:40:30.440Z,17.86
2023-05-06T15:43:05.909Z,17.61
2023-05-06T15:45:39.035Z,17.58
2023-05-06T15:48:12.260Z,17.53
2023-05-06T15:50:45.865Z,17.40
2023-05-06T15:53:20.741Z,17.53
2023-05-06T15:56:02.165Z,17.64
2023-05-06T15:58:47.598Z,17.69
2023-05-06T16:01:28.696Z,17.71
2023-05-06T16:04:14.221Z,17.87
2023-05-06T16:06:49.918Z,17.64
2023-05-06T16:09:27.425Z,17.85
2023-05-06T16:12:00.560Z,17.96
2023-05-06T16:14:34.604Z,18.08
2023-05-06T16:17:07.632Z,18.10
2023-05-06T16:19:40.691Z,18.10
2023-05-06T16:22:13.804Z,18.08
2023-05-06T16:24:48.383Z,17.94
2023-05-06T16:27:21.460Z,17.91
2023-05-06T16:29:57.604Z,18.03
2023-05-06T16:32:31.021Z,18.08
2023-05-06T16:35:04.381Z,18.06
2023-05-06T16:37:39.533Z,17.96
2023-05-06T16:40:15.488Z,17.96
2023-05-06T16:42:53.436Z,17.91
2023-05-06T16:45:26.426Z,17.81
2023-05-06T16:47:59.556Z,17.83
2023-05-06T16:50:33.277Z,17.98
2023-05-06T16:53:06.894Z,17.98
2023-05-06T16:55:43.869Z,17.89
2023-05-06T16:58:16.915Z,17.84
2023-05-06T17:00:52.804Z,17.75
2023-05-06T17:03:27.735Z,17.84
2023-05-06T17:06:00.813Z,17.80
2023-05-06T17:08:36.506Z,17.73
2023-05-06T17:11:14.227Z,17.89
2023-05-06T17:13:47.503Z,17.97
2023-05-06T17:16:24.796Z,18.00
2023-05-06T17:18:57.928Z,17.94
2023-05-06T17:21:32.104Z,17.89
2023-05-06T17:24:05.400Z,17.78
2023-05-06T17:26:41.096Z,17.89
2023-05-06T17:29:14.160Z,17.83
2023-05-06T17:31:50.066Z,17.63
2023-05-06T17:34:23.883Z,17.72
2023-05-06T17:36:59.744Z,17.77
2023-05-06T17:39:33.321Z,17.73
2023-05-06T17:42:11.218Z,17.55
2023-05-06T17:44:44.200Z,17.37
2023-05-06T17:47:18.056Z,17.40
2023-05-06T17:49:51.766Z,17.52
2023-05-06T17:52:25.970Z,17.60
2023-05-06T17:55:11.766Z,17.47
2023-05-06T17:57:50.059Z,17.43
2023-05-06T18:00:23.744Z,17.50
2023-05-06T18:03:01.257Z,17.64
2023-05-06T18:05:34.675Z,17.41
2023-05-06T18:08:12.391Z,17.47
2023-05-06T18:10:46.497Z,17.59
2023-05-06T18:13:23.292Z,17.67
2023-05-06T18:15:59.646Z,17.64
2023-05-06T18:18:33.881Z,17.67
2023-05-06T18:21:06.874Z,17.69
2023-05-06T18:23:41.265Z,17.56
2023-05-06T18:26:21.386Z,17.60
2023-05-06T18:29:03.581Z,17.75
2023-05-06T18:31:38.581Z,17.76
2023-05-06T18:34:11.963Z,17.64
2023-05-06T18:36:48.021Z,17.54
2023-05-06T18:39:27.119Z,17.47
2023-05-06T18:42:00.307Z,17.57
2023-05-06T18:44:37.404Z,17.38
2023-05-06T18:47:13.213Z,17.49
2023-05-06T18:49:46.328Z,17.55
2023-05-06T18:52:19.501Z,17.50
2023-05-06T18:54:56.979Z,17.51
2023-05-06T18:57:30.316Z,17.50
2023-05-06T19:00:07.397Z,17.35
2023-05-06T19:02:40.617Z,17.34
2023-05-06T19:05:16.603Z,17.51
2023-05-06T19:07:49.683Z,17.61
2023-05-06T19:10:22.737Z,17.37
2023-05-06T19:12:58.570Z,17.51
2023-05-06T19:15:33.106Z,17.33
2023-05-06T19:18:06.498Z,17.10
2023-05-06T19:20:40.660Z,16.97
2023-05-06T19:23:15.989Z,17.04
2023-05-06T19:25:49.682Z,16.89
2023-05-06T19:28:22.894Z,16.79
2023-05-06T19:30:57.451Z,16.71
2023-05-06T19:33:33.533Z,16.99
2023-05-06T19:36:07.194Z,17.23
2023-05-06T19:38:42.306Z,17.08
2023-05-06T19:41:15.347Z,16.90
2023-05-06T19:43:48.497Z,16.79
2023-05-06T19:46:26.981Z,16.68
2023-05-06T19:49:03.806Z,17.04
2023-05-06T19:51:36.792Z,16.78
2023-05-06T19:54:09.912Z,17.25
2023-05-06T19:56:44.491Z,17.35
2023-05-06T19:59:28.725Z,16.90
2023-05-06T20:02:03.253Z,17.04
2023-05-06T20:04:37.619Z,17.06
2023-05-06T20:07:13.781Z,17.08
2023-05-06T20:09:49.485Z,17.06
2023-05-06T20:12:22.799Z,16.96
2023-05-06T20:14:57.447Z,16.99
2023-05-06T20:17:32.159Z,16.78
2023-05-06T20:20:19.683Z,16.91
2023-05-06T20:22:52.681Z,16.84
2023-05-06T20:25:28.838Z,16.62
2023-05-06T20:28:06.105Z,16.79
2023-05-06T20:30:43.583Z,16.53
2023-05-06T20:33:19.942Z,16.82
2023-05-06T20:35:53.609Z,16.44
2023-05-06T20:38:27.510Z,16.61
2023-05-06T20:41:08.537Z,16.47
2023-05-06T20:43:41.523Z,16.45
2023-05-06T20:46:14.756Z,16.17
2023-05-06T20:48:49.334Z,16.36
2023-05-06T20:51:24.764Z,16.14
2023-05-06T20:53:59.005Z,16.04
2023-05-06T20:56:34.018Z,16.19
2023-05-06T20:59:11.560Z,16.56
2023-05-06T21:01:46.463Z,16.03
2023-05-06T21:04:20.956Z,15.74
2023-05-06T21:06:56.854Z,15.99
2023-05-06T21:09:30.190Z,16.32
2023-05-06T21:12:05.599Z,16.28
2023-05-06T21:14:38.920Z,15.93
2023-05-06T21:17:12.085Z,15.86
2023-05-06T21:19:46.600Z,16.19
2023-05-06T21:22:22.567Z,16.03
2023-05-06T21:25:01.711Z,16.23
2023-05-06T21:27:34.980Z,16.40
2023-05-06T21:30:09.119Z,16.04
2023-05-06T21:32:42.328Z,15.61
2023-05-06T21:35:22.364Z,16.24
2023-05-06T21:37:57.711Z,16.23
2023-05-06T21:40:32.970Z,15.72
2023-05-06T21:43:06.006Z,16.05
2023-05-06T21:45:39.092Z,15.74
2023-05-06T21:48:14.787Z,15.78
2023-05-06T21:50:51.885Z,15.65
2023-05-06T21:53:26.940Z,15.77
2023-05-06T21:55:59.970Z,15.54
2023-05-06T21:58:33.333Z,15.50
2023-05-06T22:01:06.934Z,15.38
2023-05-06T22:03:40.280Z,15.43
2023-05-06T22:06:15.765Z,15.66
2023-05-06T22:08:48.928Z,15.62
2023-05-06T22:11:22.905Z,15.40
2023-05-06T22:13:56.004Z,15.76
2023-05-06T22:16:29.711Z,15.95
2023-05-06T22:19:04.198Z,15.94
2023-05-06T22:21:40.109Z,15.52
2023-05-06T22:24:13.145Z,15.46
2023-05-06T22:26:46.052Z,15.82
2023-05-06T22:29:19.133Z,15.46
2023-05-06T22:31:52.170Z,15.42
2023-05-06T22:34:25.200Z,15.00
2023-05-06T22:37:00.838Z,15.08
2023-05-06T22:39:34.307Z,15.25
2023-05-06T22:42:07.207Z,15.00
2023-05-06T22:44:40.159Z,14.79
2023-05-06T22:47:12.995Z,15.03
2023-05-06T22:49:46.351Z,14.85
2023-05-06T22:52:20.959Z,15.09
2023-05-06T22:54:53.915Z,15.00
2023-05-06T22:57:27.078Z,14.96
2023-05-06T23:00:00.122Z,15.06
2023-05-06T23:02:33.530Z,14.99
2023-05-06T23:05:06.756Z,15.02
2023-05-06T23:07:41.083Z,14.74
2023-05-06T23:10:13.951Z,14.56
2023-05-06T23:12:47.287Z,14.87
2023-05-06T23:15:20.237Z,14.60
2023-05-06T23:17:53.139Z,14.86
2023-05-06T23:20:26.181Z,14.82
2023-05-06T23:23:00.448Z,14.92
2023-05-06T23:25:33.649Z,14.91
2023-05-06T23:28:06.648Z,14.66
2023-05-06T23:30:39.515Z,14.62
2023-05-06T23:33:12.294Z,14.65
2023-05-06T23:35:45.419Z,14.75
2023-05-06T23:38:19.567Z,14.82
2023-05-06T23:40:52.401Z,14.74
2023-05-06T23:43:25.115Z,14.59
2023-05-06T23:45:58.196Z,14.65
2023-05-06T23:48:31.053Z,14.46
2023-05-06T23:51:04.139Z,14.24
2023-05-06T23:53:38.325Z,13.98
2023-05-06T23:56:11.482Z,14.06
2023-05-06T23:58:44.418Z,14.09
